Detall de PIREP

Printer-friendly versionPDF version

[2008/10/19 13:11:00]
Flight IATA:CT0001
Pilot Number:041
Company ICAO:CAT
Aircraft Type:F50/A
PAX:31
Departing Airport: LELC
Destination Airport: LEIB
Alternate Airport:LEPA
Online: VATSIM
Route:ALT2E B46 POLOP B46 MITOS B46 BRUNO2V
Flight Level:FL080
No Slew and time accel
No pause
Crash detect
Detect pilot in Cockpit between each 30 and 45 minutes
13:11 Zero fuel Weight: 38803 Lbs, Fuel Weight: 4933 Lbs
13:11 VATSIM:LELC 191300Z 04015KT 9999 FEW030 BKN110 23/18 Q1018 NOSIG
13:11 VATSIM:LEIB 191300Z 08012KT 050V110 9000 SCT012 SCT100 24/20 Q1019 NOSIG
13:12 Parking Brakes off
13:20 Take-off
13:20 Take off Weight: 43655 Lbs
13:20 Wind: 039º @ 015 Knots Heading: 043º
13:20 POS N37º 46´ 34´´ W000º 48´ 38´´
13:20 Flaps:1 at 149 Knots
13:20 Gear Up: 150 Knots
13:21 Flaps:0 at 168 Knots
13:33 TOC
13:33 Fuel Weight: 4479 Lb
13:35 Wind:078º@013 Knots Heading: 066º Gr
ound Speed: 238 Knots Altitude 8021 ft
13:40 TOD
13:40 Fuel Weight: 4292 Lb
13:50 Wind:066º@013 Knots Heading: 069º Ground Speed: 230 Knots Altitude 3999 ft
13:54 Flaps:1 at 191 Knots
13:54 Gear Down: 177 Knots
13:54 Flaps:2 at 175 Knots
13:54 Flaps:3 at 157 Knots
13:55 Flaps:4 at 133 Knots
13:57 TouchDown:Rate -324 ft/min Speed: 104 Knots
13:57 VATSIM:LEIB 191330Z 07013KT 050V110 9000 SCT012 SCT100 24/21 Q1019 NOSIG
13:57 Land
13:57 Wind:069º@013 Knots
13:57 Heading: 063º
13:57 Flight Duration: 00:37
13:57 Landing Weight: 42774 Lbs
13:57 POS N38º 52´ 09´´ E001º 21´ 53´´
14:00 Parking brakes on
14:00 Block to Block Duration: 00:48
14:00 Final Fuel: 3946 Lbls
14:00 Spent Fuel: 987 Lbls
14:00 Flight Length: 133 NM
14:00 TOD Land Length: 57 NM

Exportar CSV

Powered by Drupal - Modified by Danger4k